createdAt,value
2023-01-01T00:00:03.022Z,52
2023-01-01T00:01:03.806Z,52
2023-01-01T00:02:05.274Z,52
2023-01-01T00:03:06.034Z,52
2023-01-01T00:04:06.643Z,52
2023-01-01T00:05:07.341Z,52
2023-01-01T00:06:08.105Z,52
2023-01-01T00:07:39.341Z,52
2023-01-01T00:08:40.686Z,52
2023-01-01T00:09:41.431Z,52
2023-01-01T00:10:42.987Z,52
2023-01-01T00:11:43.698Z,52
2023-01-01T00:12:44.463Z,52
2023-01-01T00:13:45.239Z,52
2023-01-01T00:14:45.951Z,52
2023-01-01T00:15:46.726Z,52
2023-01-01T00:16:47.558Z,52
2023-01-01T00:17:48.213Z,52
2023-01-01T00:18:48.972Z,52
2023-01-01T00:19:50.491Z,52
2023-01-01T00:20:51.211Z,52
2023-01-01T00:21:52.004Z,52
2023-01-01T00:22:54.977Z,52
2023-01-01T00:23:53.479Z,52
2023-01-01T00:24:54.214Z,52
2023-01-01T00:25:54.945Z,52
2023-01-01T00:26:55.671Z,52
2023-01-01T00:27:56.430Z,52
2023-01-01T00:28:58.025Z,52
2023-01-01T00:29:59.513Z,52
2023-01-01T00:31:00.291Z,52
2023-01-01T00:32:01.150Z,52
2023-01-01T00:33:01.818Z,52
2023-01-01T00:34:03.600Z,52
2023-01-01T00:35:04.285Z,52
2023-01-01T00:36:05.083Z,52
2023-01-01T00:37:05.828Z,52
2023-01-01T00:38:06.576Z,52
2023-01-01T00:39:08.546Z,52
2023-01-01T00:40:40.693Z,52
2023-01-01T00:41:41.452Z,52
2023-01-01T00:42:42.198Z,52
2023-01-01T00:43:42.957Z,52
2023-01-01T00:44:43.708Z,52
2023-01-01T00:45:44.587Z,52
2023-01-01T00:46:45.321Z,52
2023-01-01T00:47:46.158Z,52
2023-01-01T00:48:46.953Z,52
2023-01-01T00:49:48.596Z,52
2023-01-01T00:50:49.290Z,52
2023-01-01T00:51:50.063Z,52
2023-01-01T00:52:50.774Z,52
2023-01-01T00:53:51.509Z,52
2023-01-01T00:54:52.295Z,52
2023-01-01T00:55:53.034Z,52
2023-01-01T00:56:53.748Z,52
2023-01-01T00:57:54.501Z,52
2023-01-01T00:59:00.695Z,52
2023-01-01T00:59:57.666Z,52
2023-01-01T01:00:58.407Z,52
2023-01-01T01:01:59.362Z,52
2023-01-01T01:02:59.956Z,52
2023-01-01T01:04:00.684Z,52
2023-01-01T01:05:01.633Z,52
2023-01-01T01:06:02.160Z,52
2023-01-01T01:07:02.921Z,52
2023-01-01T01:08:03.644Z,52
2023-01-01T01:09:04.362Z,52
2023-01-01T01:10:06.064Z,52
2023-01-01T01:11:06.767Z,52
2023-01-01T01:12:17.632Z,52
2023-01-01T01:13:38.675Z,52
2023-01-01T01:14:39.416Z,52
2023-01-01T01:15:40.179Z,52
2023-01-01T01:16:41.819Z,52
2023-01-01T01:17:42.489Z,52
2023-01-01T01:18:43.240Z,52
2023-01-01T01:19:44.654Z,52
2023-01-01T01:20:45.431Z,52
2023-01-01T01:21:46.117Z,52
2023-01-01T01:22:47.535Z,52
2023-01-01T01:23:48.253Z,52
2023-01-01T01:24:48.951Z,52
2023-01-01T01:25:49.723Z,52
2023-01-01T01:26:50.405Z,52
2023-01-01T01:27:51.158Z,52
2023-01-01T01:28:51.971Z,52
2023-01-01T01:29:53.720Z,52
2023-01-01T01:30:54.543Z,52
2023-01-01T01:31:55.156Z,52
2023-01-01T01:32:56.127Z,52
2023-01-01T01:33:56.965Z,52
2023-01-01T01:34:57.829Z,52
2023-01-01T01:35:58.600Z,52
2023-01-01T01:36:59.317Z,52
2023-01-01T01:38:00.106Z,52
2023-01-01T01:39:00.951Z,52
2023-01-01T01:40:02.606Z,52
2023-01-01T01:41:04.212Z,52
2023-01-01T01:42:04.923Z,52
2023-01-01T01:43:05.767Z,52
2023-01-01T01:44:06.650Z,52
2023-01-01T01:45:07.961Z,52
2023-01-01T01:46:39.090Z,52
2023-01-01T01:47:39.838Z,52
2023-01-01T01:48:40.687Z,52
2023-01-01T01:49:42.232Z,52
2023-01-01T01:50:43.093Z,52
2023-01-01T01:51:43.947Z,52
2023-01-01T01:52:44.706Z,52
2023-01-01T01:53:45.523Z,52
2023-01-01T01:54:46.364Z,52
2023-01-01T01:55:47.213Z,52
2023-01-01T01:56:48.007Z,52
2023-01-01T01:57:48.681Z,52
2023-01-01T01:58:50.184Z,52
2023-01-01T01:59:51.726Z,52
2023-01-01T02:00:52.564Z,52
2023-01-01T02:01:53.609Z,52
2023-01-01T02:02:54.192Z,52
2023-01-01T02:03:54.903Z,52
2023-01-01T02:04:55.759Z,52
2023-01-01T02:05:56.628Z,52
2023-01-01T02:06:57.838Z,52
2023-01-01T02:07:58.460Z,52
2023-01-01T02:09:00.139Z,52
2023-01-01T02:10:01.709Z,52
2023-01-01T02:11:02.511Z,52
2023-01-01T02:12:03.414Z,52
2023-01-01T02:13:04.185Z,52
2023-01-01T02:14:04.918Z,52
2023-01-01T02:15:05.747Z,52
2023-01-01T02:16:06.653Z,52
2023-01-01T02:17:39.513Z,52
2023-01-01T02:18:39.000Z,52
2023-01-01T02:19:39.816Z,52
2023-01-01T02:20:41.569Z,52
2023-01-01T02:21:42.443Z,52
2023-01-01T02:22:43.286Z,52
2023-01-01T02:23:45.169Z,52
2023-01-01T02:24:45.900Z,52
2023-01-01T02:25:46.709Z,52
2023-01-01T02:26:47.545Z,52
2023-01-01T02:27:48.502Z,52
2023-01-01T02:28:49.277Z,52
2023-01-01T02:29:50.087Z,52
2023-01-01T02:30:51.543Z,52
2023-01-01T02:31:52.387Z,52
2023-01-01T02:32:53.240Z,52
2023-01-01T02:33:54.068Z,52
2023-01-01T02:34:54.826Z,52
2023-01-01T02:35:55.576Z,52
2023-01-01T02:36:56.496Z,52
2023-01-01T02:37:57.617Z,52
2023-01-01T02:38:58.483Z,52
2023-01-01T02:40:00.055Z,52
2023-01-01T02:41:01.549Z,52
2023-01-01T02:42:02.416Z,52
2023-01-01T02:43:03.300Z,52
2023-01-01T02:45:05.141Z,52
2023-01-01T02:46:05.924Z,52
2023-01-01T02:47:07.100Z,52
2023-01-01T02:48:38.354Z,52
2023-01-01T02:49:39.183Z,52
2023-01-01T02:50:40.569Z,52
2023-01-01T02:51:41.322Z,52
2023-01-01T02:52:42.121Z,52
2023-01-01T02:53:42.979Z,52
2023-01-01T02:54:43.902Z,52
2023-01-01T02:55:44.755Z,52
2023-01-01T02:56:45.503Z,52
2023-01-01T02:57:46.235Z,52
2023-01-01T02:58:47.206Z,52
2023-01-01T02:59:48.590Z,52
2023-01-01T03:00:50.129Z,52
2023-01-01T03:01:51.065Z,52
2023-01-01T03:02:51.982Z,52
2023-01-01T03:03:52.628Z,52
2023-01-01T03:04:53.498Z,52
2023-01-01T03:05:54.337Z,52
2023-01-01T03:06:55.179Z,52
2023-01-01T03:07:55.943Z,52
2023-01-01T03:08:56.641Z,52
2023-01-01T03:10:28.224Z,52
2023-01-01T03:11:59.511Z,52
2023-01-01T03:13:00.297Z,52
2023-01-01T03:14:01.008Z,52
2023-01-01T03:15:01.824Z,52
2023-01-01T03:16:02.735Z,52
2023-01-01T03:17:03.499Z,52
2023-01-01T03:18:04.232Z,52
2023-01-01T03:19:05.004Z,52
2023-01-01T03:20:05.812Z,52
2023-01-01T03:21:38.083Z,52
2023-01-01T03:23:44.525Z,52
2023-01-01T03:24:40.568Z,52
2023-01-01T03:25:41.365Z,52
2023-01-01T03:26:42.326Z,52
2023-01-01T03:27:43.205Z,52
2023-01-01T03:28:44.100Z,52
2023-01-01T03:29:45.681Z,52
2023-01-01T03:30:46.668Z,52
2023-01-01T03:31:47.376Z,52
2023-01-01T03:32:49.149Z,52
2023-01-01T03:33:49.932Z,52
2023-01-01T03:34:50.733Z,52
2023-01-01T03:35:51.463Z,52
2023-01-01T03:36:52.325Z,52
2023-01-01T03:37:53.248Z,52
2023-01-01T03:38:54.109Z,52
2023-01-01T03:39:55.674Z,52
2023-01-01T03:40:57.173Z,52
2023-01-01T03:41:58.352Z,52
2023-01-01T03:42:59.100Z,52
2023-01-01T03:43:59.979Z,52
2023-01-01T03:45:00.802Z,52
2023-01-01T03:46:01.582Z,52
2023-01-01T03:47:02.480Z,52
2023-01-01T03:48:03.280Z,52
2023-01-01T03:49:04.635Z,52
2023-01-01T03:50:05.047Z,52
2023-01-01T03:51:36.962Z,52
2023-01-01T03:52:37.732Z,52
2023-01-01T03:53:38.664Z,52
2023-01-01T03:54:39.542Z,52
2023-01-01T03:55:40.376Z,52
2023-01-01T03:56:41.142Z,52
2023-01-01T03:57:42.034Z,52
2023-01-01T03:58:42.904Z,52
2023-01-01T03:59:44.728Z,52
2023-01-01T04:00:45.582Z,52
2023-01-01T04:01:47.293Z,52
2023-01-01T04:02:48.052Z,52
2023-01-01T04:03:48.751Z,52
2023-01-01T04:04:49.626Z,52
2023-01-01T04:05:50.472Z,52
2023-01-01T04:06:51.318Z,52
2023-01-01T04:07:52.043Z,52
2023-01-01T04:08:53.620Z,52
2023-01-01T04:09:54.475Z,52
2023-01-01T04:10:56.207Z,52
2023-01-01T04:11:57.049Z,52
2023-01-01T04:12:57.776Z,52
2023-01-01T04:13:58.520Z,52
2023-01-01T04:14:59.449Z,52
2023-01-01T04:16:00.454Z,52
2023-01-01T04:17:01.172Z,52
2023-01-01T04:18:01.911Z,52
2023-01-01T04:19:02.717Z,52
2023-01-01T04:20:03.582Z,52
2023-01-01T04:21:05.219Z,52
2023-01-01T04:22:36.737Z,52
2023-01-01T04:23:37.417Z,52
2023-01-01T04:24:38.254Z,52
2023-01-01T04:25:39.142Z,52
2023-01-01T04:26:40.021Z,52
2023-01-01T04:27:40.864Z,52
2023-01-01T04:28:41.579Z,52
2023-01-01T04:29:42.510Z,52
2023-01-01T04:30:44.214Z,52
2023-01-01T04:31:45.163Z,52
2023-01-01T04:32:46.932Z,52
2023-01-01T04:33:47.660Z,52
2023-01-01T04:34:48.468Z,52
2023-01-01T04:35:49.326Z,52
2023-01-01T04:36:50.316Z,52
2023-01-01T04:37:50.990Z,52
2023-01-01T04:38:51.884Z,52
2023-01-01T04:39:52.643Z,52
2023-01-01T04:40:54.187Z,52
2023-01-01T04:41:55.062Z,52
2023-01-01T04:42:55.876Z,52
2023-01-01T04:43:56.714Z,52
2023-01-01T04:44:57.628Z,52
2023-01-01T04:45:58.456Z,52
2023-01-01T04:47:00.330Z,52
2023-01-01T04:48:00.165Z,52
2023-01-01T04:49:00.991Z,52
2023-01-01T04:50:01.696Z,52
2023-01-01T04:51:03.215Z,52
2023-01-01T04:52:04.155Z,52
2023-01-01T04:53:04.977Z,52
2023-01-01T04:54:36.254Z,52
2023-01-01T04:55:36.964Z,52
2023-01-01T04:56:37.723Z,52
2023-01-01T04:57:38.684Z,52
2023-01-01T04:58:39.625Z,52
2023-01-01T04:59:41.191Z,52
2023-01-01T05:00:41.980Z,52
2023-01-01T05:01:43.852Z,52
2023-01-01T05:02:44.687Z,52
2023-01-01T05:03:45.515Z,52
2023-01-01T05:04:46.456Z,52
2023-01-01T05:05:51.284Z,52
2023-01-01T05:06:48.008Z,52
2023-01-01T05:07:48.956Z,52
2023-01-01T05:08:49.779Z,52
2023-01-01T05:09:50.769Z,52
2023-01-01T05:10:52.073Z,52
2023-01-01T05:11:52.879Z,52
2023-01-01T05:12:54.705Z,52
2023-01-01T05:13:55.627Z,52
2023-01-01T05:14:56.584Z,52
2023-01-01T05:15:57.604Z,52
2023-01-01T05:16:58.398Z,52
2023-01-01T05:17:59.227Z,52
2023-01-01T05:19:00.149Z,52
2023-01-01T05:20:01.040Z,52
2023-01-01T05:21:02.720Z,52
2023-01-01T05:22:10.224Z,52
2023-01-01T05:23:35.879Z,52
2023-01-01T05:24:36.745Z,52
2023-01-01T05:25:37.635Z,52
2023-01-01T05:26:38.478Z,52
2023-01-01T05:27:40.169Z,52
2023-01-01T05:28:40.984Z,52
2023-01-01T05:29:41.893Z,52
2023-01-01T05:30:42.795Z,52
2023-01-01T05:31:44.803Z,52
2023-01-01T05:32:45.662Z,52
2023-01-01T05:33:46.443Z,52
2023-01-01T05:34:47.367Z,52
2023-01-01T05:35:48.203Z,52
2023-01-01T05:36:49.048Z,52
2023-01-01T05:37:49.814Z,52
2023-01-01T05:38:50.618Z,52
2023-01-01T05:39:51.483Z,52
2023-01-01T05:40:53.148Z,52
2023-01-01T05:41:54.063Z,52
2023-01-01T05:42:55.615Z,52
2023-01-01T05:43:56.373Z,52
2023-01-01T05:44:57.426Z,52
2023-01-01T05:45:58.314Z,52
2023-01-01T05:46:59.192Z,52
2023-01-01T05:48:00.211Z,52
2023-01-01T05:49:00.922Z,52
2023-01-01T05:51:02.664Z,52
2023-01-01T05:52:04.197Z,52
2023-01-01T05:53:35.532Z,52
2023-01-01T05:54:36.288Z,52
2023-01-01T05:55:37.043Z,52
2023-01-01T05:56:37.947Z,52
2023-01-01T05:57:38.845Z,52
2023-01-01T05:58:39.701Z,52
2023-01-01T05:59:40.541Z,52
2023-01-01T06:00:42.098Z,52
2023-01-01T06:01:45.799Z,52
2023-01-01T06:02:44.843Z,52
2023-01-01T06:03:45.558Z,52
2023-01-01T06:04:46.408Z,52
2023-01-01T06:05:47.178Z,52
2023-01-01T06:06:48.023Z,52
2023-01-01T06:07:49.038Z,52
2023-01-01T06:08:49.815Z,52
2023-01-01T06:09:50.734Z,52
2023-01-01T06:10:51.513Z,52
2023-01-01T06:11:53.063Z,52
2023-01-01T06:12:54.699Z,52
2023-01-01T06:13:55.660Z,52
2023-01-01T06:14:56.634Z,52
2023-01-01T06:15:57.600Z,52
2023-01-01T06:16:58.532Z,52
2023-01-01T06:17:59.287Z,52
2023-01-01T06:19:00.209Z,52
2023-01-01T06:20:01.082Z,52
2023-01-01T06:21:01.890Z,52
2023-01-01T06:22:03.666Z,52
2023-01-01T06:23:35.173Z,52
2023-01-01T06:24:39.080Z,52
2023-01-01T06:25:36.932Z,52
2023-01-01T06:26:37.755Z,52
2023-01-01T06:27:38.587Z,52
2023-01-01T06:28:39.424Z,52
2023-01-01T06:29:40.351Z,52
2023-01-01T06:30:41.275Z,52
2023-01-01T06:31:42.667Z,52
2023-01-01T06:32:43.541Z,52
2023-01-01T06:33:44.481Z,52
2023-01-01T06:34:45.307Z,52
2023-01-01T06:35:46.243Z,52
2023-01-01T06:36:47.195Z,52
2023-01-01T06:37:48.102Z,52
2023-01-01T06:38:48.951Z,52
2023-01-01T06:39:49.738Z,52
2023-01-01T06:40:50.616Z,52
2023-01-01T06:41:52.141Z,52
2023-01-01T06:42:52.925Z,52
2023-01-01T06:43:53.668Z,52
2023-01-01T06:44:54.430Z,52
2023-01-01T06:45:55.353Z,52
2023-01-01T06:46:56.241Z,52
2023-01-01T06:47:58.772Z,52
2023-01-01T06:48:58.153Z,52
2023-01-01T06:49:58.864Z,52
2023-01-01T06:50:59.870Z,52
2023-01-01T06:52:01.710Z,52
2023-01-01T06:53:02.587Z,52
2023-01-01T06:54:04.035Z,52
2023-01-01T06:55:35.232Z,52
2023-01-01T06:56:36.146Z,4
2023-01-01T06:57:37.095Z,0
2023-01-01T06:58:37.980Z,4
2023-01-01T06:59:38.815Z,0
2023-01-01T07:00:39.559Z,4
2023-01-01T07:01:41.174Z,4
2023-01-01T07:02:42.848Z,4
2023-01-01T07:03:43.535Z,4
2023-01-01T07:04:44.253Z,4
2023-01-01T07:05:45.028Z,8
2023-01-01T07:06:45.831Z,8
2023-01-01T07:07:46.694Z,8
2023-01-01T07:08:47.568Z,12
2023-01-01T07:09:48.483Z,8
2023-01-01T07:10:50.156Z,12
2023-01-01T07:11:51.678Z,12
2023-01-01T07:12:52.472Z,12
2023-01-01T07:13:53.220Z,16
2023-01-01T07:14:54.056Z,16
2023-01-01T07:15:54.910Z,20
2023-01-01T07:16:55.653Z,16
2023-01-01T07:17:56.549Z,20
2023-01-01T07:18:57.817Z,24
2023-01-01T07:19:58.617Z,24
2023-01-01T07:20:59.440Z,28
2023-01-01T07:22:01.149Z,28
2023-01-01T07:23:01.900Z,32
2023-01-01T07:24:02.689Z,40
2023-01-01T07:25:34.415Z,40
2023-01-01T07:26:35.087Z,44
2023-01-01T07:27:35.916Z,52
2023-01-01T07:28:36.858Z,52
2023-01-01T07:29:37.702Z,56
2023-01-01T07:30:39.227Z,60
2023-01-01T07:31:40.113Z,64
2023-01-01T07:32:41.596Z,68
2023-01-01T07:33:42.324Z,72
2023-01-01T07:34:48.847Z,72
2023-01-01T07:35:43.911Z,80
2023-01-01T07:36:44.732Z,88
2023-01-01T07:37:45.457Z,92
2023-01-01T07:38:46.276Z,96
2023-01-01T07:39:47.093Z,100
2023-01-01T07:40:48.032Z,100
2023-01-01T07:41:48.908Z,100
2023-01-01T07:42:50.579Z,108
2023-01-01T07:43:51.367Z,112
2023-01-01T07:44:52.276Z,116
2023-01-01T07:45:53.157Z,124
2023-01-01T07:46:53.829Z,128
2023-01-01T07:47:54.602Z,132
2023-01-01T07:48:55.404Z,136
2023-01-01T07:49:56.190Z,140
2023-01-01T07:50:57.084Z,140
2023-01-01T07:51:58.202Z,144
2023-01-01T07:52:59.577Z,144
2023-01-01T07:54:06.232Z,148
2023-01-01T07:55:01.210Z,152
2023-01-01T07:56:02.111Z,152
2023-01-01T07:57:03.325Z,156
2023-01-01T07:58:34.544Z,160
2023-01-01T07:59:35.329Z,156
2023-01-01T08:00:36.086Z,156
2023-01-01T08:01:37.862Z,160
2023-01-01T08:02:39.299Z,148
2023-01-01T08:03:40.099Z,140
2023-01-01T08:04:40.897Z,140
2023-01-01T08:05:41.686Z,136
2023-01-01T08:06:42.604Z,136
2023-01-01T08:07:43.398Z,136
2023-01-01T08:08:44.383Z,128
2023-01-01T08:09:45.213Z,128
2023-01-01T08:10:45.987Z,132
2023-01-01T08:11:46.851Z,132
2023-01-01T08:12:48.743Z,136
2023-01-01T08:13:49.660Z,136
2023-01-01T08:14:50.524Z,136
2023-01-01T08:15:51.435Z,140
2023-01-01T08:16:52.340Z,144
2023-01-01T08:17:53.207Z,144
2023-01-01T08:18:53.898Z,148
2023-01-01T08:19:54.730Z,148
2023-01-01T08:20:55.537Z,152
2023-01-01T08:21:56.351Z,156
2023-01-01T08:23:04.561Z,160
2023-01-01T08:23:59.138Z,160
2023-01-01T08:25:00.023Z,164
2023-01-01T08:26:00.854Z,168
2023-01-01T08:27:01.740Z,172
2023-01-01T08:28:03.065Z,180
2023-01-01T08:29:34.337Z,184
2023-01-01T08:30:35.369Z,184
2023-01-01T08:31:37.169Z,188
2023-01-01T08:32:38.671Z,192
2023-01-01T08:33:39.561Z,192
2023-01-01T08:34:40.419Z,196
2023-01-01T08:35:41.342Z,200
2023-01-01T08:36:42.137Z,204
2023-01-01T08:37:42.981Z,204
2023-01-01T08:38:43.885Z,208
2023-01-01T08:39:44.801Z,212
2023-01-01T08:40:45.689Z,212
2023-01-01T08:41:46.555Z,216
2023-01-01T08:42:48.172Z,220
2023-01-01T08:43:49.089Z,224
2023-01-01T08:44:50.028Z,224
2023-01-01T08:45:50.935Z,232
2023-01-01T08:46:52.052Z,232
2023-01-01T08:47:52.785Z,236
2023-01-01T08:48:53.647Z,240
2023-01-01T08:49:54.521Z,240
2023-01-01T08:50:55.395Z,244
2023-01-01T08:51:56.420Z,248
2023-01-01T08:52:58.674Z,252
2023-01-01T08:53:59.468Z,264
2023-01-01T08:55:00.386Z,272
2023-01-01T08:56:01.257Z,276
2023-01-01T08:57:02.144Z,288
2023-01-01T08:58:33.390Z,296
2023-01-01T08:59:34.192Z,296
2023-01-01T09:00:35.025Z,300
2023-01-01T09:01:36.875Z,308
2023-01-01T09:02:38.955Z,308
2023-01-01T09:03:39.641Z,312
2023-01-01T09:04:40.398Z,324
2023-01-01T09:05:41.197Z,340
2023-01-01T09:06:42.114Z,356
2023-01-01T09:07:43.042Z,360
2023-01-01T09:08:43.873Z,340
2023-01-01T09:09:44.805Z,340
2023-01-01T09:10:45.592Z,332
2023-01-01T09:11:46.572Z,328
2023-01-01T09:12:48.163Z,340
2023-01-01T09:13:49.620Z,352
2023-01-01T09:14:50.516Z,336
2023-01-01T09:15:51.310Z,324
2023-01-01T09:16:52.176Z,320
2023-01-01T09:17:52.996Z,320
2023-01-01T09:18:53.882Z,308
2023-01-01T09:19:54.663Z,300
2023-01-01T09:20:55.425Z,292
2023-01-01T09:21:57.407Z,296
2023-01-01T09:23:04.025Z,288
2023-01-01T09:24:00.149Z,284
2023-01-01T09:25:01.039Z,284
2023-01-01T09:26:02.202Z,296
2023-01-01T09:27:33.452Z,300
2023-01-01T09:28:34.361Z,308
2023-01-01T09:29:35.238Z,324
2023-01-01T09:30:36.042Z,320
2023-01-01T09:31:36.921Z,316
2023-01-01T09:32:37.650Z,316
2023-01-01T09:33:39.219Z,312
2023-01-01T09:34:40.197Z,304
2023-01-01T09:35:41.028Z,304
2023-01-01T09:36:41.750Z,304
2023-01-01T09:37:42.552Z,308
2023-01-01T09:38:43.423Z,312
2023-01-01T09:39:44.399Z,316
2023-01-01T09:40:50.796Z,320
2023-01-01T09:41:46.874Z,316
2023-01-01T09:42:48.185Z,320
2023-01-01T09:43:49.199Z,324
2023-01-01T09:44:51.266Z,324
2023-01-01T09:45:52.288Z,320
2023-01-01T09:46:52.969Z,320
2023-01-01T09:47:53.796Z,332
2023-01-01T09:48:54.719Z,336
2023-01-01T09:49:55.734Z,344
2023-01-01T09:50:56.719Z,352
2023-01-01T09:51:58.237Z,352
2023-01-01T09:52:59.224Z,356
2023-01-01T09:54:00.115Z,348
2023-01-01T09:55:00.992Z,348
2023-01-01T09:56:32.719Z,348
2023-01-01T09:57:33.477Z,352
2023-01-01T09:58:34.510Z,352
2023-01-01T09:59:35.374Z,356
2023-01-01T10:00:36.311Z,356
2023-01-01T10:01:37.343Z,360
2023-01-01T10:02:38.577Z,356
2023-01-01T10:03:40.129Z,348
2023-01-01T10:04:40.972Z,348
2023-01-01T10:05:41.812Z,348
2023-01-01T10:06:42.867Z,348
2023-01-01T10:07:43.529Z,352
2023-01-01T10:08:44.355Z,360
2023-01-01T10:09:45.073Z,356
2023-01-01T10:10:45.957Z,360
2023-01-01T10:11:46.871Z,360
2023-01-01T10:12:47.777Z,356
2023-01-01T10:13:49.092Z,360
2023-01-01T10:14:49.911Z,356
2023-01-01T10:15:50.856Z,356
2023-01-01T10:16:51.860Z,368
2023-01-01T10:17:52.559Z,356
2023-01-01T10:18:53.289Z,360
2023-01-01T10:19:54.099Z,368
2023-01-01T10:20:55.109Z,368
2023-01-01T10:21:56.077Z,368
2023-01-01T10:22:56.838Z,364
2023-01-01T10:23:58.607Z,368
2023-01-01T10:24:59.428Z,380
2023-01-01T10:26:00.212Z,380
2023-01-01T10:27:01.700Z,380
2023-01-01T10:28:32.927Z,380
2023-01-01T10:29:33.672Z,396
2023-01-01T10:30:34.458Z,392
2023-01-01T10:31:36.260Z,396
2023-01-01T10:32:37.132Z,404
2023-01-01T10:33:38.752Z,404
2023-01-01T10:34:39.711Z,404
2023-01-01T10:35:40.676Z,416
2023-01-01T10:36:41.550Z,424
2023-01-01T10:37:42.463Z,428
2023-01-01T10:38:43.396Z,432
2023-01-01T10:39:44.236Z,432
2023-01-01T10:40:45.003Z,440
2023-01-01T10:41:45.807Z,448
2023-01-01T10:42:46.703Z,436
2023-01-01T10:43:48.129Z,428
2023-01-01T10:44:48.918Z,436
2023-01-01T10:45:49.762Z,436
2023-01-01T10:46:50.480Z,444
2023-01-01T10:47:52.361Z,448
2023-01-01T10:48:53.229Z,440
2023-01-01T10:49:54.160Z,428
2023-01-01T10:50:54.915Z,428
2023-01-01T10:51:56.643Z,424
2023-01-01T10:52:57.658Z,424
2023-01-01T10:53:59.223Z,436
2023-01-01T10:55:00.073Z,436
2023-01-01T10:56:01.211Z,436
2023-01-01T10:57:32.349Z,444
2023-01-01T10:58:34.115Z,428
2023-01-01T10:59:34.955Z,432
2023-01-01T11:00:35.728Z,428
2023-01-01T11:01:36.647Z,428
2023-01-01T11:02:37.458Z,424
2023-01-01T11:03:38.707Z,428
2023-01-01T11:04:39.528Z,444
2023-01-01T11:05:40.391Z,444
2023-01-01T11:06:41.129Z,436
2023-01-01T11:07:41.951Z,452
2023-01-01T11:08:43.719Z,452
2023-01-01T11:10:01.668Z,456
2023-01-01T11:10:45.410Z,456
2023-01-01T11:11:46.113Z,456
2023-01-01T11:13:04.665Z,452
2023-01-01T11:13:49.437Z,440
2023-01-01T11:14:50.015Z,428
2023-01-01T11:15:50.801Z,432
2023-01-01T11:16:51.589Z,432
2023-01-01T11:17:53.186Z,412
2023-01-01T11:18:54.098Z,444
2023-01-01T11:20:01.325Z,440
2023-01-01T11:20:55.794Z,448
2023-01-01T11:21:56.472Z,444
2023-01-01T11:22:57.425Z,452
2023-01-01T11:23:59.233Z,456
2023-01-01T11:25:00.720Z,444
2023-01-01T11:26:32.003Z,460
2023-01-01T11:27:32.742Z,472
2023-01-01T11:28:33.621Z,456
2023-01-01T11:29:34.605Z,492
2023-01-01T11:30:35.617Z,496
2023-01-01T11:31:36.403Z,496
2023-01-01T11:32:38.075Z,496
2023-01-01T11:33:39.753Z,496
2023-01-01T11:34:40.660Z,488
2023-01-01T11:35:41.550Z,492
2023-01-01T11:36:42.434Z,428
2023-01-01T11:37:43.172Z,500
2023-01-01T11:38:43.926Z,488
2023-01-01T11:39:44.931Z,492
2023-01-01T11:40:45.817Z,488
2023-01-01T11:41:46.622Z,488
2023-01-01T11:42:48.198Z,472
2023-01-01T11:43:49.650Z,476
2023-01-01T11:44:50.598Z,472
2023-01-01T11:45:51.611Z,476
2023-01-01T11:46:52.430Z,492
2023-01-01T11:47:53.238Z,496
2023-01-01T11:48:54.081Z,488
2023-01-01T11:49:55.077Z,488
2023-01-01T11:50:56.004Z,492
2023-01-01T11:51:56.954Z,500
2023-01-01T11:52:57.747Z,508
2023-01-01T11:53:59.687Z,520
2023-01-01T11:55:31.427Z,524
2023-01-01T11:56:32.360Z,520
2023-01-01T11:57:33.401Z,532
2023-01-01T11:58:34.131Z,556
2023-01-01T11:59:34.982Z,568
2023-01-01T12:00:35.923Z,576
2023-01-01T12:01:36.907Z,572
2023-01-01T12:02:38.089Z,568
2023-01-01T12:03:39.857Z,604
2023-01-01T12:04:40.659Z,620
2023-01-01T12:05:42.193Z,620
2023-01-01T12:06:43.148Z,628
2023-01-01T12:07:44.096Z,628
2023-01-01T12:08:45.152Z,624
2023-01-01T12:09:46.051Z,648
2023-01-01T12:10:46.949Z,684
2023-01-01T12:11:47.922Z,696
2023-01-01T12:12:49.763Z,700
2023-01-01T12:13:51.234Z,712
2023-01-01T12:14:52.118Z,684
2023-01-01T12:15:52.946Z,732
2023-01-01T12:16:53.844Z,764
2023-01-01T12:17:54.573Z,792
2023-01-01T12:18:55.482Z,804
2023-01-01T12:19:56.317Z,820
2023-01-01T12:20:57.119Z,832
2023-01-01T12:21:58.252Z,840
2023-01-01T12:22:59.122Z,864
2023-01-01T12:24:32.085Z,844
2023-01-01T12:25:32.878Z,872
2023-01-01T12:26:33.826Z,856
2023-01-01T12:27:34.635Z,908
2023-01-01T12:28:35.572Z,908
2023-01-01T12:29:36.492Z,900
2023-01-01T12:30:37.304Z,920
2023-01-01T12:31:38.049Z,960
2023-01-01T12:32:39.766Z,972
2023-01-01T12:33:40.625Z,980
2023-01-01T12:34:42.231Z,976
2023-01-01T12:35:43.002Z,988
2023-01-01T12:36:43.788Z,1024
2023-01-01T12:37:44.642Z,1060
2023-01-01T12:38:45.536Z,1068
2023-01-01T12:39:46.412Z,1072
2023-01-01T12:40:47.251Z,1092
2023-01-01T12:41:47.960Z,1108
2023-01-01T12:42:49.687Z,1096
2023-01-01T12:43:50.594Z,1132
2023-01-01T12:44:52.393Z,1152
2023-01-01T12:45:53.337Z,1172
2023-01-01T12:46:54.182Z,1184
2023-01-01T12:47:55.040Z,1228
2023-01-01T12:48:55.992Z,1252
2023-01-01T12:49:57.033Z,1276
2023-01-01T12:51:04.836Z,1312
2023-01-01T12:51:59.167Z,1340
2023-01-01T12:53:30.529Z,1336
2023-01-01T12:54:32.148Z,1364
2023-01-01T12:55:32.990Z,1324
2023-01-01T12:56:33.869Z,1312
2023-01-01T12:57:34.662Z,1392
2023-01-01T12:58:35.489Z,1416
2023-01-01T12:59:37.231Z,1468
2023-01-01T13:00:38.278Z,1388
2023-01-01T13:01:39.299Z,1408
2023-01-01T13:02:40.052Z,1428
2023-01-01T13:03:40.930Z,1428
2023-01-01T13:04:42.633Z,1432
2023-01-01T13:05:43.429Z,1472
2023-01-01T13:06:44.289Z,1488
2023-01-01T13:07:45.104Z,1580
2023-01-01T13:08:46.037Z,1652
2023-01-01T13:09:46.851Z,1680
2023-01-01T13:10:47.725Z,1704
2023-01-01T13:11:48.728Z,1760
2023-01-01T13:12:50.176Z,1848
2023-01-01T13:13:50.980Z,1872
2023-01-01T13:14:52.571Z,1924
2023-01-01T13:15:53.418Z,1980
2023-01-01T13:16:54.364Z,2000
2023-01-01T13:17:55.374Z,2080
2023-01-01T13:19:00.695Z,2128
2023-01-01T13:19:56.859Z,2100
2023-01-01T13:20:58.676Z,2196
2023-01-01T13:22:30.013Z,2196
2023-01-01T13:23:31.693Z,2252
2023-01-01T13:24:33.488Z,2292
2023-01-01T13:25:34.054Z,2284
2023-01-01T13:26:34.882Z,2288
2023-01-01T13:27:35.683Z,2328
2023-01-01T13:28:36.473Z,2380
2023-01-01T13:29:37.263Z,2400
2023-01-01T13:30:38.122Z,2432
2023-01-01T13:31:39.216Z,2436
2023-01-01T13:32:39.642Z,2464
2023-01-01T13:33:40.446Z,2472
2023-01-01T13:34:42.187Z,2484
2023-01-01T13:35:42.930Z,2500
2023-01-01T13:36:43.739Z,2492
2023-01-01T13:37:44.711Z,2508
2023-01-01T13:38:45.462Z,2528
2023-01-01T13:39:46.252Z,2532
2023-01-01T13:40:47.014Z,2560
2023-01-01T13:41:47.741Z,2580
2023-01-01T13:42:48.584Z,2588
2023-01-01T13:43:50.042Z,2592
2023-01-01T13:44:51.578Z,2580
2023-01-01T13:46:12.853Z,2560
2023-01-01T13:46:53.197Z,2552
2023-01-01T13:47:54.667Z,2536
2023-01-01T13:49:01.209Z,2544
2023-01-01T13:49:56.373Z,2444
2023-01-01T13:50:57.113Z,2304
2023-01-01T13:52:06.022Z,1840
2023-01-01T13:53:29.803Z,1616
2023-01-01T13:54:31.184Z,1400
2023-01-01T13:55:34.435Z,1192
2023-01-01T13:56:32.801Z,1028
2023-01-01T13:57:33.662Z,872
2023-01-01T13:58:34.410Z,744
2023-01-01T13:59:35.256Z,648
2023-01-01T14:00:36.107Z,596
2023-01-01T14:01:37.076Z,584
2023-01-01T14:02:37.953Z,592
2023-01-01T14:03:38.663Z,596
2023-01-01T14:04:40.234Z,600
2023-01-01T14:05:41.010Z,592
2023-01-01T14:06:41.789Z,588
2023-01-01T14:07:51.740Z,580
2023-01-01T14:08:43.480Z,576
2023-01-01T14:09:44.284Z,572
2023-01-01T14:10:47.712Z,576
2023-01-01T14:11:45.825Z,572
2023-01-01T14:12:47.557Z,568
2023-01-01T14:13:48.431Z,568
2023-01-01T14:14:50.210Z,564
2023-01-01T14:15:51.040Z,564
2023-01-01T14:16:51.884Z,560
2023-01-01T14:17:52.631Z,552
2023-01-01T14:18:53.413Z,552
2023-01-01T14:19:54.165Z,544
2023-01-01T14:20:54.909Z,536
2023-01-01T14:21:55.633Z,544
2023-01-01T14:22:56.435Z,540
2023-01-01T14:23:58.036Z,536
2023-01-01T14:25:30.032Z,532
2023-01-01T14:26:30.813Z,524
2023-01-01T14:27:31.679Z,520
2023-01-01T14:28:32.430Z,516
2023-01-01T14:29:33.177Z,508
2023-01-01T14:30:33.969Z,504
2023-01-01T14:31:34.815Z,504